sensor_id;sensor_type;location;lat;lon;timestamp;temperature;humidity
79244;SHT31;68672;42.676;23.356;2023-08-30T00:00:59;21.81;72.82
79244;SHT31;68672;42.676;23.356;2023-08-30T00:03:25;21.81;72.38
79244;SHT31;68672;42.676;23.356;2023-08-30T00:05:50;21.77;71.52
79244;SHT31;68672;42.676;23.356;2023-08-30T00:08:16;21.71;71.49
79244;SHT31;68672;42.676;23.356;2023-08-30T00:10:48;21.68;71.07
79244;SHT31;68672;42.676;23.356;2023-08-30T00:13:13;21.66;70.61
79244;SHT31;68672;42.676;23.356;2023-08-30T00:15:39;21.62;70.66
79244;SHT31;68672;42.676;23.356;2023-08-30T00:18:04;21.57;71.14
79244;SHT31;68672;42.676;23.356;2023-08-30T00:20:30;21.57;70.83
79244;SHT31;68672;42.676;23.356;2023-08-30T00:22:58;21.51;70.98
79244;SHT31;68672;42.676;23.356;2023-08-30T00:25:24;21.47;71.19
79244;SHT31;68672;42.676;23.356;2023-08-30T00:27:49;21.44;70.30
79244;SHT31;68672;42.676;23.356;2023-08-30T00:30:15;21.43;69.68
79244;SHT31;68672;42.676;23.356;2023-08-30T00:32:43;21.34;68.63
79244;SHT31;68672;42.676;23.356;2023-08-30T00:35:10;21.33;68.72
79244;SHT31;68672;42.676;23.356;2023-08-30T00:37:35;21.28;69.32
79244;SHT31;68672;42.676;23.356;2023-08-30T00:40:01;21.22;68.98
79244;SHT31;68672;42.676;23.356;2023-08-30T00:42:26;21.17;68.68
79244;SHT31;68672;42.676;23.356;2023-08-30T00:44:53;21.19;69.84
79244;SHT31;68672;42.676;23.356;2023-08-30T00:47:18;21.16;69.74
79244;SHT31;68672;42.676;23.356;2023-08-30T00:49:44;21.07;69.09
79244;SHT31;68672;42.676;23.356;2023-08-30T00:52:10;21.02;68.33
79244;SHT31;68672;42.676;23.356;2023-08-30T00:54:36;21.00;68.72
79244;SHT31;68672;42.676;23.356;2023-08-30T00:57:02;20.97;68.32
79244;SHT31;68672;42.676;23.356;2023-08-30T00:59:28;20.97;67.38
79244;SHT31;68672;42.676;23.356;2023-08-30T01:01:55;20.96;68.65
79244;SHT31;68672;42.676;23.356;2023-08-30T01:04:21;21.02;68.60
79244;SHT31;68672;42.676;23.356;2023-08-30T01:06:47;21.00;69.30
79244;SHT31;68672;42.676;23.356;2023-08-30T01:09:14;20.96;68.30
79244;SHT31;68672;42.676;23.356;2023-08-30T01:11:47;20.96;69.01
79244;SHT31;68672;42.676;23.356;2023-08-30T01:14:21;21.02;69.72
79244;SHT31;68672;42.676;23.356;2023-08-30T01:16:48;21.04;69.86
79244;SHT31;68672;42.676;23.356;2023-08-30T01:22:15;21.16;69.73
79244;SHT31;68672;42.676;23.356;2023-08-30T01:25:00;21.11;69.69
79244;SHT31;68672;42.676;23.356;2023-08-30T01:27:33;21.08;70.28
79244;SHT31;68672;42.676;23.356;2023-08-30T01:30:02;21.04;69.10
79244;SHT31;68672;42.676;23.356;2023-08-30T01:32:28;21.06;68.79
79244;SHT31;68672;42.676;23.356;2023-08-30T01:34:58;21.04;68.30
79244;SHT31;68672;42.676;23.356;2023-08-30T01:37:24;21.04;68.85
79244;SHT31;68672;42.676;23.356;2023-08-30T01:39:52;21.02;68.49
79244;SHT31;68672;42.676;23.356;2023-08-30T01:42:17;21.02;67.97
79244;SHT31;68672;42.676;23.356;2023-08-30T01:44:47;21.02;67.46
79244;SHT31;68672;42.676;23.356;2023-08-30T01:47:13;20.94;67.52
79244;SHT31;68672;42.676;23.356;2023-08-30T01:49:40;20.92;67.66
79244;SHT31;68672;42.676;23.356;2023-08-30T01:52:06;20.90;68.17
79244;SHT31;68672;42.676;23.356;2023-08-30T01:54:32;20.90;68.10
79244;SHT31;68672;42.676;23.356;2023-08-30T01:56:58;20.93;67.90
79244;SHT31;68672;42.676;23.356;2023-08-30T01:59:26;20.97;68.36
79244;SHT31;68672;42.676;23.356;2023-08-30T02:01:51;21.03;68.91
79244;SHT31;68672;42.676;23.356;2023-08-30T02:04:17;21.07;69.07
79244;SHT31;68672;42.676;23.356;2023-08-30T02:06:53;21.11;68.79
79244;SHT31;68672;42.676;23.356;2023-08-30T02:12:10;21.08;69.08
79244;SHT31;68672;42.676;23.356;2023-08-30T02:14:39;21.11;69.24
79244;SHT31;68672;42.676;23.356;2023-08-30T02:17:06;21.10;69.45
79244;SHT31;68672;42.676;23.356;2023-08-30T02:19:33;21.04;69.66
79244;SHT31;68672;42.676;23.356;2023-08-30T02:21:59;21.02;69.58
79244;SHT31;68672;42.676;23.356;2023-08-30T02:24:24;21.00;69.79
79244;SHT31;68672;42.676;23.356;2023-08-30T02:26:50;20.96;69.54
79244;SHT31;68672;42.676;23.356;2023-08-30T02:29:18;20.94;69.43
79244;SHT31;68672;42.676;23.356;2023-08-30T02:31:43;20.93;69.56
79244;SHT31;68672;42.676;23.356;2023-08-30T02:34:09;20.90;68.73
79244;SHT31;68672;42.676;23.356;2023-08-30T02:36:35;20.82;68.29
79244;SHT31;68672;42.676;23.356;2023-08-30T02:39:00;20.82;68.82
79244;SHT31;68672;42.676;23.356;2023-08-30T02:41:25;20.79;68.68
79244;SHT31;68672;42.676;23.356;2023-08-30T02:43:51;20.77;68.77
79244;SHT31;68672;42.676;23.356;2023-08-30T02:46:16;20.76;69.02
79244;SHT31;68672;42.676;23.356;2023-08-30T02:48:42;20.73;69.27
79244;SHT31;68672;42.676;23.356;2023-08-30T02:51:07;20.72;69.39
79244;SHT31;68672;42.676;23.356;2023-08-30T02:53:32;20.72;69.36
79244;SHT31;68672;42.676;23.356;2023-08-30T02:55:58;20.69;68.43
79244;SHT31;68672;42.676;23.356;2023-08-30T02:58:23;20.69;69.50
79244;SHT31;68672;42.676;23.356;2023-08-30T03:00:49;20.69;69.63
79244;SHT31;68672;42.676;23.356;2023-08-30T03:03:14;20.69;69.43
79244;SHT31;68672;42.676;23.356;2023-08-30T03:05:40;20.68;68.22
79244;SHT31;68672;42.676;23.356;2023-08-30T03:08:05;20.72;68.36
79244;SHT31;68672;42.676;23.356;2023-08-30T03:10:31;20.77;67.87
79244;SHT31;68672;42.676;23.356;2023-08-30T03:12:57;20.79;68.83
79244;SHT31;68672;42.676;23.356;2023-08-30T03:15:22;20.82;68.73
79244;SHT31;68672;42.676;23.356;2023-08-30T03:17:48;20.80;68.70
79244;SHT31;68672;42.676;23.356;2023-08-30T03:20:13;20.83;68.46
79244;SHT31;68672;42.676;23.356;2023-08-30T03:22:39;20.83;68.79
79244;SHT31;68672;42.676;23.356;2023-08-30T03:25:05;20.85;68.75
79244;SHT31;68672;42.676;23.356;2023-08-30T03:27:32;20.80;68.85
79244;SHT31;68672;42.676;23.356;2023-08-30T03:29:58;20.87;69.12
79244;SHT31;68672;42.676;23.356;2023-08-30T03:32:23;20.86;69.27
79244;SHT31;68672;42.676;23.356;2023-08-30T03:34:49;20.89;69.12
79244;SHT31;68672;42.676;23.356;2023-08-30T03:37:15;20.90;68.66
79244;SHT31;68672;42.676;23.356;2023-08-30T03:39:41;20.89;68.57
79244;SHT31;68672;42.676;23.356;2023-08-30T03:42:08;20.97;68.35
79244;SHT31;68672;42.676;23.356;2023-08-30T03:44:34;20.94;68.17
79244;SHT31;68672;42.676;23.356;2023-08-30T03:47:00;20.90;68.16
79244;SHT31;68672;42.676;23.356;2023-08-30T03:49:25;20.86;68.39
79244;SHT31;68672;42.676;23.356;2023-08-30T03:51:54;20.80;68.61
79244;SHT31;68672;42.676;23.356;2023-08-30T03:54:20;20.77;68.60
79244;SHT31;68672;42.676;23.356;2023-08-30T03:56:45;20.72;68.57
79244;SHT31;68672;42.676;23.356;2023-08-30T03:59:11;20.68;68.85
79244;SHT31;68672;42.676;23.356;2023-08-30T04:01:37;20.62;68.88
79244;SHT31;68672;42.676;23.356;2023-08-30T04:04:02;20.56;68.96
79244;SHT31;68672;42.676;23.356;2023-08-30T04:06:33;20.52;69.21
79244;SHT31;68672;42.676;23.356;2023-08-30T04:08:59;20.53;69.54
79244;SHT31;68672;42.676;23.356;2023-08-30T04:11:27;20.53;69.75
79244;SHT31;68672;42.676;23.356;2023-08-30T04:13:52;20.55;69.86
79244;SHT31;68672;42.676;23.356;2023-08-30T04:16:18;20.57;70.10
79244;SHT31;68672;42.676;23.356;2023-08-30T04:18:43;20.65;70.25
79244;SHT31;68672;42.676;23.356;2023-08-30T04:21:09;20.72;70.39
79244;SHT31;68672;42.676;23.356;2023-08-30T04:23:35;20.82;70.15
79244;SHT31;68672;42.676;23.356;2023-08-30T04:26:03;20.92;70.09
79244;SHT31;68672;42.676;23.356;2023-08-30T04:28:28;21.03;70.39
79244;SHT31;68672;42.676;23.356;2023-08-30T04:30:54;21.11;70.21
79244;SHT31;68672;42.676;23.356;2023-08-30T04:33:20;21.22;69.75
79244;SHT31;68672;42.676;23.356;2023-08-30T04:35:52;21.30;69.39
79244;SHT31;68672;42.676;23.356;2023-08-30T04:38:18;21.35;68.84
79244;SHT31;68672;42.676;23.356;2023-08-30T04:40:43;21.43;68.94
79244;SHT31;68672;42.676;23.356;2023-08-30T04:43:11;21.45;69.02
79244;SHT31;68672;42.676;23.356;2023-08-30T04:45:37;21.50;69.23
79244;SHT31;68672;42.676;23.356;2023-08-30T04:48:03;21.45;68.94
79244;SHT31;68672;42.676;23.356;2023-08-30T04:50:28;21.53;69.29
79244;SHT31;68672;42.676;23.356;2023-08-30T04:52:54;21.57;68.90
79244;SHT31;68672;42.676;23.356;2023-08-30T04:55:19;21.53;68.82
79244;SHT31;68672;42.676;23.356;2023-08-30T04:57:44;21.58;68.73
79244;SHT31;68672;42.676;23.356;2023-08-30T05:00:14;21.51;68.84
79244;SHT31;68672;42.676;23.356;2023-08-30T05:02:40;21.54;68.85
79244;SHT31;68672;42.676;23.356;2023-08-30T05:05:10;21.51;69.09
79244;SHT31;68672;42.676;23.356;2023-08-30T05:07:38;21.47;68.50
79244;SHT31;68672;42.676;23.356;2023-08-30T05:10:05;21.47;68.46
79244;SHT31;68672;42.676;23.356;2023-08-30T05:12:31;21.51;68.80
79244;SHT31;68672;42.676;23.356;2023-08-30T05:14:59;21.50;69.19
79244;SHT31;68672;42.676;23.356;2023-08-30T05:17:27;21.51;68.24
79244;SHT31;68672;42.676;23.356;2023-08-30T05:19:54;21.50;67.98
79244;SHT31;68672;42.676;23.356;2023-08-30T05:22:22;21.55;67.52
79244;SHT31;68672;42.676;23.356;2023-08-30T05:24:47;21.57;67.72
79244;SHT31;68672;42.676;23.356;2023-08-30T05:27:13;21.62;67.74
79244;SHT31;68672;42.676;23.356;2023-08-30T05:29:40;21.68;67.27
79244;SHT31;68672;42.676;23.356;2023-08-30T05:32:06;21.71;66.75
79244;SHT31;68672;42.676;23.356;2023-08-30T05:34:31;21.72;66.27
79244;SHT31;68672;42.676;23.356;2023-08-30T05:36:57;21.77;65.70
79244;SHT31;68672;42.676;23.356;2023-08-30T05:39:22;21.78;65.30
79244;SHT31;68672;42.676;23.356;2023-08-30T05:41:50;21.78;63.51
79244;SHT31;68672;42.676;23.356;2023-08-30T05:44:16;21.82;61.42
79244;SHT31;68672;42.676;23.356;2023-08-30T05:46:44;21.85;60.61
79244;SHT31;68672;42.676;23.356;2023-08-30T05:49:11;21.93;60.47
79244;SHT31;68672;42.676;23.356;2023-08-30T05:51:39;21.95;59.96
79244;SHT31;68672;42.676;23.356;2023-08-30T05:54:07;22.05;60.47
79244;SHT31;68672;42.676;23.356;2023-08-30T05:56:33;22.12;60.50
79244;SHT31;68672;42.676;23.356;2023-08-30T05:59:01;22.16;59.95
79244;SHT31;68672;42.676;23.356;2023-08-30T06:01:27;22.14;59.72
79244;SHT31;68672;42.676;23.356;2023-08-30T06:03:55;22.23;58.94
79244;SHT31;68672;42.676;23.356;2023-08-30T06:06:20;22.26;58.59
79244;SHT31;68672;42.676;23.356;2023-08-30T06:08:46;22.36;58.09
79244;SHT31;68672;42.676;23.356;2023-08-30T06:11:12;22.40;57.30
79244;SHT31;68672;42.676;23.356;2023-08-30T06:13:37;22.46;57.54
79244;SHT31;68672;42.676;23.356;2023-08-30T06:16:03;22.54;57.64
79244;SHT31;68672;42.676;23.356;2023-08-30T06:18:30;22.64;57.47
79244;SHT31;68672;42.676;23.356;2023-08-30T06:20:57;22.73;57.46
79244;SHT31;68672;42.676;23.356;2023-08-30T06:23:25;22.83;57.17
79244;SHT31;68672;42.676;23.356;2023-08-30T06:25:57;22.90;57.18
79244;SHT31;68672;42.676;23.356;2023-08-30T06:28:22;22.95;56.75
79244;SHT31;68672;42.676;23.356;2023-08-30T06:30:48;23.04;56.11
79244;SHT31;68672;42.676;23.356;2023-08-30T06:33:14;23.11;55.34
79244;SHT31;68672;42.676;23.356;2023-08-30T06:35:42;23.14;55.10
79244;SHT31;68672;42.676;23.356;2023-08-30T06:38:08;23.21;55.23
79244;SHT31;68672;42.676;23.356;2023-08-30T06:40:33;23.32;55.32
79244;SHT31;68672;42.676;23.356;2023-08-30T06:43:01;23.38;55.24
79244;SHT31;68672;42.676;23.356;2023-08-30T06:45:26;23.46;54.69
79244;SHT31;68672;42.676;23.356;2023-08-30T06:47:52;23.58;53.93
79244;SHT31;68672;42.676;23.356;2023-08-30T06:50:18;23.59;52.84
79244;SHT31;68672;42.676;23.356;2023-08-30T06:52:43;23.69;52.72
79244;SHT31;68672;42.676;23.356;2023-08-30T06:55:09;23.69;52.14
79244;SHT31;68672;42.676;23.356;2023-08-30T06:57:37;23.77;52.05
79244;SHT31;68672;42.676;23.356;2023-08-30T07:00:03;23.81;51.01
79244;SHT31;68672;42.676;23.356;2023-08-30T07:02:34;23.92;51.23
79244;SHT31;68672;42.676;23.356;2023-08-30T07:05:00;24.10;51.62
79244;SHT31;68672;42.676;23.356;2023-08-30T07:07:25;24.25;50.94
79244;SHT31;68672;42.676;23.356;2023-08-30T07:09:51;24.38;50.91
79244;SHT31;68672;42.676;23.356;2023-08-30T07:12:16;24.48;51.11
79244;SHT31;68672;42.676;23.356;2023-08-30T07:14:47;24.62;51.24
79244;SHT31;68672;42.676;23.356;2023-08-30T07:17:13;24.69;50.76
79244;SHT31;68672;42.676;23.356;2023-08-30T07:19:39;24.83;50.32
79244;SHT31;68672;42.676;23.356;2023-08-30T07:22:04;24.89;50.15
79244;SHT31;68672;42.676;23.356;2023-08-30T07:24:30;24.92;49.70
79244;SHT31;68672;42.676;23.356;2023-08-30T07:26:55;24.98;49.85
79244;SHT31;68672;42.676;23.356;2023-08-30T07:29:21;24.99;50.31
79244;SHT31;68672;42.676;23.356;2023-08-30T07:31:46;25.06;50.17
79244;SHT31;68672;42.676;23.356;2023-08-30T07:34:12;25.12;50.08
79244;SHT31;68672;42.676;23.356;2023-08-30T07:36:37;25.20;49.32
79244;SHT31;68672;42.676;23.356;2023-08-30T07:39:03;25.22;49.14
79244;SHT31;68672;42.676;23.356;2023-08-30T07:41:33;25.31;48.79
79244;SHT31;68672;42.676;23.356;2023-08-30T07:43:59;25.37;48.48
79244;SHT31;68672;42.676;23.356;2023-08-30T07:46:24;25.36;48.57
79244;SHT31;68672;42.676;23.356;2023-08-30T07:48:50;25.46;47.65
79244;SHT31;68672;42.676;23.356;2023-08-30T07:51:16;25.50;47.34
79244;SHT31;68672;42.676;23.356;2023-08-30T07:53:41;25.48;47.87
79244;SHT31;68672;42.676;23.356;2023-08-30T07:56:10;25.58;48.22
79244;SHT31;68672;42.676;23.356;2023-08-30T07:58:35;25.64;48.74
79244;SHT31;68672;42.676;23.356;2023-08-30T08:01:00;25.74;48.49
79244;SHT31;68672;42.676;23.356;2023-08-30T08:03:27;25.82;47.90
79244;SHT31;68672;42.676;23.356;2023-08-30T08:05:52;25.95;47.29
79244;SHT31;68672;42.676;23.356;2023-08-30T08:08:18;26.05;47.27
79244;SHT31;68672;42.676;23.356;2023-08-30T08:10:43;26.09;47.07
79244;SHT31;68672;42.676;23.356;2023-08-30T08:13:09;26.19;46.76
79244;SHT31;68672;42.676;23.356;2023-08-30T08:15:34;26.31;46.51
79244;SHT31;68672;42.676;23.356;2023-08-30T08:18:00;26.38;46.52
79244;SHT31;68672;42.676;23.356;2023-08-30T08:20:26;26.46;46.31
79244;SHT31;68672;42.676;23.356;2023-08-30T08:22:52;26.56;45.65
79244;SHT31;68672;42.676;23.356;2023-08-30T08:25:17;26.64;45.07
79244;SHT31;68672;42.676;23.356;2023-08-30T08:27:47;26.72;44.46
79244;SHT31;68672;42.676;23.356;2023-08-30T08:30:13;26.84;44.52
79244;SHT31;68672;42.676;23.356;2023-08-30T08:32:38;26.94;44.21
79244;SHT31;68672;42.676;23.356;2023-08-30T08:35:04;27.07;43.78
79244;SHT31;68672;42.676;23.356;2023-08-30T08:37:30;27.20;43.51
79244;SHT31;68672;42.676;23.356;2023-08-30T08:39:56;27.25;43.08
79244;SHT31;68672;42.676;23.356;2023-08-30T08:42:21;27.38;43.60
79244;SHT31;68672;42.676;23.356;2023-08-30T08:44:53;27.42;42.62
79244;SHT31;68672;42.676;23.356;2023-08-30T08:47:20;27.54;40.93
79244;SHT31;68672;42.676;23.356;2023-08-30T08:49:55;27.59;40.29
79244;SHT31;68672;42.676;23.356;2023-08-30T08:52:20;27.63;40.30
79244;SHT31;68672;42.676;23.356;2023-08-30T08:54:46;27.75;39.73
79244;SHT31;68672;42.676;23.356;2023-08-30T08:57:12;27.92;39.81
79244;SHT31;68672;42.676;23.356;2023-08-30T08:59:38;28.05;40.20
79244;SHT31;68672;42.676;23.356;2023-08-30T09:02:04;28.13;39.86
79244;SHT31;68672;42.676;23.356;2023-08-30T09:04:31;28.27;39.88
79244;SHT31;68672;42.676;23.356;2023-08-30T09:06:58;28.44;39.97
79244;SHT31;68672;42.676;23.356;2023-08-30T09:09:24;28.58;39.35
79244;SHT31;68672;42.676;23.356;2023-08-30T09:11:50;28.68;39.54
79244;SHT31;68672;42.676;23.356;2023-08-30T09:14:15;28.78;39.14
79244;SHT31;68672;42.676;23.356;2023-08-30T09:16:40;28.91;38.41
79244;SHT31;68672;42.676;23.356;2023-08-30T09:19:06;29.05;38.65
79244;SHT31;68672;42.676;23.356;2023-08-30T09:21:32;29.13;38.78
79244;SHT31;68672;42.676;23.356;2023-08-30T09:24:06;29.18;38.33
79244;SHT31;68672;42.676;23.356;2023-08-30T09:26:33;29.15;38.70
79244;SHT31;68672;42.676;23.356;2023-08-30T09:29:03;29.22;38.70
79244;SHT31;68672;42.676;23.356;2023-08-30T09:31:38;29.25;38.51
79244;SHT31;68672;42.676;23.356;2023-08-30T09:34:06;29.34;38.24
79244;SHT31;68672;42.676;23.356;2023-08-30T09:36:39;29.45;37.40
79244;SHT31;68672;42.676;23.356;2023-08-30T09:39:11;29.40;38.01
79244;SHT31;68672;42.676;23.356;2023-08-30T09:41:41;29.42;37.96
79244;SHT31;68672;42.676;23.356;2023-08-30T09:46:45;29.66;37.36
79244;SHT31;68672;42.676;23.356;2023-08-30T09:49:11;29.63;36.96
79244;SHT31;68672;42.676;23.356;2023-08-30T09:51:41;29.54;37.53
79244;SHT31;68672;42.676;23.356;2023-08-30T09:54:13;29.74;37.50
79244;SHT31;68672;42.676;23.356;2023-08-30T09:56:40;29.80;36.80
79244;SHT31;68672;42.676;23.356;2023-08-30T09:59:06;29.85;36.79
79244;SHT31;68672;42.676;23.356;2023-08-30T10:01:32;30.00;37.01
79244;SHT31;68672;42.676;23.356;2023-08-30T10:03:58;30.08;37.03
79244;SHT31;68672;42.676;23.356;2023-08-30T10:06:24;30.29;36.47
79244;SHT31;68672;42.676;23.356;2023-08-30T10:08:51;30.41;35.72
79244;SHT31;68672;42.676;23.356;2023-08-30T10:11:18;30.59;35.93
79244;SHT31;68672;42.676;23.356;2023-08-30T10:13:44;30.72;35.65
79244;SHT31;68672;42.676;23.356;2023-08-30T10:16:15;30.80;35.23
79244;SHT31;68672;42.676;23.356;2023-08-30T10:18:46;30.90;35.38
79244;SHT31;68672;42.676;23.356;2023-08-30T10:21:12;31.00;35.48
79244;SHT31;68672;42.676;23.356;2023-08-30T10:23:39;30.97;35.45
79244;SHT31;68672;42.676;23.356;2023-08-30T10:26:05;31.00;35.11
79244;SHT31;68672;42.676;23.356;2023-08-30T10:28:32;30.89;35.52
79244;SHT31;68672;42.676;23.356;2023-08-30T10:30:59;31.07;35.05
79244;SHT31;68672;42.676;23.356;2023-08-30T10:33:25;31.11;35.25
79244;SHT31;68672;42.676;23.356;2023-08-30T10:35:51;31.16;35.03
79244;SHT31;68672;42.676;23.356;2023-08-30T10:38:29;31.00;35.04
79244;SHT31;68672;42.676;23.356;2023-08-30T10:40:55;30.86;35.16
79244;SHT31;68672;42.676;23.356;2023-08-30T10:43:33;30.65;35.54
79244;SHT31;68672;42.676;23.356;2023-08-30T10:46:02;30.53;35.94
79244;SHT31;68672;42.676;23.356;2023-08-30T10:48:38;30.68;35.90
79244;SHT31;68672;42.676;23.356;2023-08-30T10:51:06;30.73;35.93
79244;SHT31;68672;42.676;23.356;2023-08-30T10:53:32;30.63;35.67
79244;SHT31;68672;42.676;23.356;2023-08-30T10:56:10;30.53;35.94
79244;SHT31;68672;42.676;23.356;2023-08-30T10:58:41;30.41;36.37
79244;SHT31;68672;42.676;23.356;2023-08-30T11:01:10;30.28;36.50
79244;SHT31;68672;42.676;23.356;2023-08-30T11:03:38;30.17;36.40
79244;SHT31;68672;42.676;23.356;2023-08-30T11:06:03;30.05;36.88
79244;SHT31;68672;42.676;23.356;2023-08-30T11:08:29;30.05;37.02
79244;SHT31;68672;42.676;23.356;2023-08-30T11:11:04;31.07;35.44
79244;SHT31;68672;42.676;23.356;2023-08-30T11:13:30;31.93;33.96
79244;SHT31;68672;42.676;23.356;2023-08-30T11:16:00;33.07;32.38
79244;SHT31;68672;42.676;23.356;2023-08-30T11:18:26;33.28;31.53
79244;SHT31;68672;42.676;23.356;2023-08-30T11:21:01;32.92;31.68
79244;SHT31;68672;42.676;23.356;2023-08-30T11:23:27;32.59;32.55
79244;SHT31;68672;42.676;23.356;2023-08-30T11:25:56;32.57;32.82
79244;SHT31;68672;42.676;23.356;2023-08-30T11:28:22;32.70;32.52
79244;SHT31;68672;42.676;23.356;2023-08-30T11:30:47;32.71;32.20
79244;SHT31;68672;42.676;23.356;2023-08-30T11:33:12;32.73;32.35
79244;SHT31;68672;42.676;23.356;2023-08-30T11:35:40;33.00;31.93
79244;SHT31;68672;42.676;23.356;2023-08-30T11:38:06;33.27;31.40
79244;SHT31;68672;42.676;23.356;2023-08-30T11:40:32;33.59;31.24
79244;SHT31;68672;42.676;23.356;2023-08-30T11:42:58;33.77;30.74
79244;SHT31;68672;42.676;23.356;2023-08-30T11:45:23;33.88;30.73
79244;SHT31;68672;42.676;23.356;2023-08-30T11:47:52;33.80;30.40
79244;SHT31;68672;42.676;23.356;2023-08-30T11:50:21;33.68;30.10
79244;SHT31;68672;42.676;23.356;2023-08-30T11:52:46;33.59;30.40
79244;SHT31;68672;42.676;23.356;2023-08-30T11:55:14;33.52;30.80
79244;SHT31;68672;42.676;23.356;2023-08-30T11:57:43;33.41;31.11
79244;SHT31;68672;42.676;23.356;2023-08-30T12:00:13;33.39;31.41
79244;SHT31;68672;42.676;23.356;2023-08-30T12:02:42;33.29;31.39
79244;SHT31;68672;42.676;23.356;2023-08-30T12:05:15;33.24;30.88
79244;SHT31;68672;42.676;23.356;2023-08-30T12:07:41;33.10;30.69
79244;SHT31;68672;42.676;23.356;2023-08-30T12:10:08;33.01;30.71
79244;SHT31;68672;42.676;23.356;2023-08-30T12:12:34;32.77;30.40
79244;SHT31;68672;42.676;23.356;2023-08-30T12:15:07;32.67;30.93
79244;SHT31;68672;42.676;23.356;2023-08-30T12:17:35;32.50;31.54
79244;SHT31;68672;42.676;23.356;2023-08-30T12:20:00;32.39;31.70
79244;SHT31;68672;42.676;23.356;2023-08-30T12:22:40;32.32;31.77
79244;SHT31;68672;42.676;23.356;2023-08-30T12:25:26;32.28;31.89
79244;SHT31;68672;42.676;23.356;2023-08-30T12:27:52;32.28;31.28
79244;SHT31;68672;42.676;23.356;2023-08-30T12:30:18;32.19;30.92
79244;SHT31;68672;42.676;23.356;2023-08-30T12:32:45;32.18;31.09
79244;SHT31;68672;42.676;23.356;2023-08-30T12:35:10;32.15;30.47
79244;SHT31;68672;42.676;23.356;2023-08-30T12:37:39;32.10;30.76
79244;SHT31;68672;42.676;23.356;2023-08-30T12:40:05;32.09;30.10
79244;SHT31;68672;42.676;23.356;2023-08-30T12:42:31;32.15;30.32
79244;SHT31;68672;42.676;23.356;2023-08-30T12:44:57;32.08;28.23
79244;SHT31;68672;42.676;23.356;2023-08-30T12:47:22;31.95;29.89
79244;SHT31;68672;42.676;23.356;2023-08-30T12:49:48;31.78;29.41
79244;SHT31;68672;42.676;23.356;2023-08-30T12:52:13;31.62;29.23
79244;SHT31;68672;42.676;23.356;2023-08-30T12:54:38;31.58;29.01
79244;SHT31;68672;42.676;23.356;2023-08-30T12:57:04;31.48;27.62
79244;SHT31;68672;42.676;23.356;2023-08-30T12:59:29;31.45;27.72
79244;SHT31;68672;42.676;23.356;2023-08-30T13:01:55;31.42;29.17
79244;SHT31;68672;42.676;23.356;2023-08-30T13:04:20;31.40;29.73
79244;SHT31;68672;42.676;23.356;2023-08-30T13:06:45;31.38;29.35
79244;SHT31;68672;42.676;23.356;2023-08-30T13:09:11;31.24;29.35
79244;SHT31;68672;42.676;23.356;2023-08-30T13:11:36;31.21;28.83
79244;SHT31;68672;42.676;23.356;2023-08-30T13:14:02;31.21;28.54
79244;SHT31;68672;42.676;23.356;2023-08-30T13:16:27;31.13;28.54
79244;SHT31;68672;42.676;23.356;2023-08-30T13:18:53;31.00;28.83
79244;SHT31;68672;42.676;23.356;2023-08-30T13:21:18;31.06;28.68
79244;SHT31;68672;42.676;23.356;2023-08-30T13:23:43;31.09;29.06
79244;SHT31;68672;42.676;23.356;2023-08-30T13:26:09;31.14;28.81
79244;SHT31;68672;42.676;23.356;2023-08-30T13:28:35;31.21;27.87
79244;SHT31;68672;42.676;23.356;2023-08-30T13:31:00;31.24;27.62
79244;SHT31;68672;42.676;23.356;2023-08-30T13:33:26;31.26;24.92
79244;SHT31;68672;42.676;23.356;2023-08-30T13:35:52;31.17;25.35
79244;SHT31;68672;42.676;23.356;2023-08-30T13:38:18;31.11;24.90
79244;SHT31;68672;42.676;23.356;2023-08-30T13:40:44;31.10;25.00
79244;SHT31;68672;42.676;23.356;2023-08-30T13:43:09;31.11;25.03
79244;SHT31;68672;42.676;23.356;2023-08-30T13:45:35;31.19;24.72
79244;SHT31;68672;42.676;23.356;2023-08-30T13:48:00;31.20;24.76
79244;SHT31;68672;42.676;23.356;2023-08-30T13:50:26;31.20;24.72
79244;SHT31;68672;42.676;23.356;2023-08-30T13:52:58;31.21;24.34
79244;SHT31;68672;42.676;23.356;2023-08-30T13:55:24;31.20;24.43
79244;SHT31;68672;42.676;23.356;2023-08-30T13:57:49;31.21;24.69
79244;SHT31;68672;42.676;23.356;2023-08-30T14:00:15;31.23;24.25
79244;SHT31;68672;42.676;23.356;2023-08-30T14:02:47;31.24;24.36
79244;SHT31;68672;42.676;23.356;2023-08-30T14:05:12;31.19;24.26
79244;SHT31;68672;42.676;23.356;2023-08-30T14:07:38;31.13;24.17
79244;SHT31;68672;42.676;23.356;2023-08-30T14:10:03;31.16;24.49
79244;SHT31;68672;42.676;23.356;2023-08-30T14:12:29;31.10;24.68
79244;SHT31;68672;42.676;23.356;2023-08-30T14:14:54;31.10;24.91
79244;SHT31;68672;42.676;23.356;2023-08-30T14:17:20;31.17;25.15
79244;SHT31;68672;42.676;23.356;2023-08-30T14:19:45;31.23;24.80
79244;SHT31;68672;42.676;23.356;2023-08-30T14:22:10;31.19;24.37
79244;SHT31;68672;42.676;23.356;2023-08-30T14:24:36;31.11;24.91
79244;SHT31;68672;42.676;23.356;2023-08-30T14:27:03;31.09;25.34
79244;SHT31;68672;42.676;23.356;2023-08-30T14:29:28;31.01;25.27
79244;SHT31;68672;42.676;23.356;2023-08-30T14:31:54;30.99;25.01
79244;SHT31;68672;42.676;23.356;2023-08-30T14:34:22;30.96;25.24
79244;SHT31;68672;42.676;23.356;2023-08-30T14:36:47;30.90;25.16
79244;SHT31;68672;42.676;23.356;2023-08-30T14:39:14;30.86;25.34
79244;SHT31;68672;42.676;23.356;2023-08-30T14:41:42;30.76;25.70
79244;SHT31;68672;42.676;23.356;2023-08-30T14:44:08;30.75;25.84
79244;SHT31;68672;42.676;23.356;2023-08-30T14:46:34;30.65;26.02
79244;SHT31;68672;42.676;23.356;2023-08-30T14:49:00;30.62;25.70
79244;SHT31;68672;42.676;23.356;2023-08-30T14:51:28;30.61;25.91
79244;SHT31;68672;42.676;23.356;2023-08-30T14:53:53;30.66;26.24
79244;SHT31;68672;42.676;23.356;2023-08-30T14:56:19;30.76;26.79
79244;SHT31;68672;42.676;23.356;2023-08-30T14:58:44;30.83;29.71
79244;SHT31;68672;42.676;23.356;2023-08-30T15:01:14;30.84;30.63
79244;SHT31;68672;42.676;23.356;2023-08-30T15:03:40;30.83;30.96
79244;SHT31;68672;42.676;23.356;2023-08-30T15:06:06;30.86;31.39
79244;SHT31;68672;42.676;23.356;2023-08-30T15:08:31;30.83;31.72
79244;SHT31;68672;42.676;23.356;2023-08-30T15:10:57;30.84;32.01
79244;SHT31;68672;42.676;23.356;2023-08-30T15:13:23;30.80;31.70
79244;SHT31;68672;42.676;23.356;2023-08-30T15:15:48;30.70;31.80
79244;SHT31;68672;42.676;23.356;2023-08-30T15:18:14;30.72;31.64
79244;SHT31;68672;42.676;23.356;2023-08-30T15:20:40;30.69;31.83